Time;durP1;ratioP1;P1;durP2;ratioP2;P2;SDS_P1;SDS_P2;PMS_P1;PMS_P2;Temp;Humidity;BMP_temperature;BMP_pressure;BME280_temperature;BME280_humidity;BME280_pressure;Samples;Min_cycle;Max_cycle;Signal;HPM_P1;HPM_P2
2022/09/20 00:01:12;;;;;;;10.52;5.72;;;;;;;11.55;100.00;102165.47;5051956;28;20394;-63
2022/09/20 00:03:40;;;;;;;9.20;5.43;;;;;;;11.58;100.00;102164.59;5052012;28;20083;-62
2022/09/20 00:06:08;;;;;;;9.57;5.10;;;;;;;11.56;100.00;102159.34;5051897;28;20061;-62
2022/09/20 00:08:34;;;;;;;10.93;5.03;;;;;;;11.59;100.00;102169.84;5051636;28;20048;-62
2022/09/20 00:11:05;;;;;;;14.10;5.20;;;;;;;11.60;100.00;102168.09;5051893;28;20037;-62
2022/09/20 00:13:31;;;;;;;9.55;5.07;;;;;;;11.57;100.00;102162.84;5052038;28;20065;-62
2022/09/20 00:15:57;;;;;;;14.35;5.43;;;;;;;11.61;100.00;102162.84;5051592;28;20075;-62
2022/09/20 00:18:23;;;;;;;12.52;5.47;;;;;;;11.58;100.00;102162.84;5067127;28;20491;-62
2022/09/20 00:20:49;;;;;;;10.88;5.38;;;;;;;11.58;100.00;102167.22;5071587;28;20090;-62
2022/09/20 00:23:15;;;;;;;9.88;5.55;;;;;;;11.59;100.00;102158.50;5071753;28;20368;-64
2022/09/20 00:25:41;;;;;;;9.30;5.30;;;;;;;11.62;100.00;102154.09;5071291;28;20047;-61
2022/09/20 00:28:07;;;;;;;12.95;5.60;;;;;;;11.57;100.00;102152.34;5071661;28;20090;-63
2022/09/20 00:30:33;;;;;;;14.45;5.13;;;;;;;11.54;100.00;102149.72;5071704;28;20032;-61
2022/09/20 00:32:59;;;;;;;12.40;5.50;;;;;;;11.55;100.00;102160.22;5071583;28;20036;-62
2022/09/20 00:35:24;;;;;;;12.98;5.30;;;;;;;11.54;100.00;102149.72;5071450;28;20060;-63
2022/09/20 00:37:49;;;;;;;12.05;5.50;;;;;;;11.51;100.00;102151.47;5071433;28;20115;-62
2022/09/20 00:40:19;;;;;;;10.48;5.85;;;;;;;11.46;100.00;102160.16;5071465;28;20115;-62
2022/09/20 00:42:45;;;;;;;12.77;5.72;;;;;;;11.40;100.00;102155.78;5071353;28;20125;-61
2022/09/20 00:45:20;;;;;;;12.05;5.90;;;;;;;11.46;100.00;102166.28;5071412;28;20067;-61
2022/09/20 00:48:09;;;;;;;11.63;5.38;;;;;;;11.42;100.00;102155.81;5071454;28;20032;-62
2022/09/20 00:50:44;;;;;;;15.45;5.97;;;;;;;11.44;100.00;102161.91;5071404;28;20040;-63
2022/09/20 00:53:15;;;;;;;11.73;5.50;;;;;;;11.40;100.00;102161.03;5071416;28;20032;-61
2022/09/20 00:55:46;;;;;;;14.98;5.68;;;;;;;11.45;100.00;102161.91;5071472;28;20090;-64
2022/09/20 00:58:12;;;;;;;10.50;5.18;;;;;;;11.35;100.00;102157.50;5070971;28;20024;-60
2022/09/20 01:00:41;;;;;;;10.95;5.60;;;;;;;11.33;100.00;102158.38;5071094;28;20056;-62
2022/09/20 01:03:10;;;;;;;12.93;5.28;;;;;;;11.27;100.00;102160.94;5071256;28;20120;-63
2022/09/20 01:05:37;;;;;;;11.55;4.85;;;;;;;11.23;100.00;102159.19;5071221;28;20064;-62
2022/09/20 01:08:03;;;;;;;11.88;5.50;;;;;;;11.12;100.00;102151.28;5071343;28;20089;-60
2022/09/20 01:10:30;;;;;;;16.60;6.03;;;;;;;11.06;100.00;102161.72;5071211;28;20036;-63
2022/09/20 01:12:55;;;;;;;9.52;5.50;;;;;;;11.08;100.00;102153.00;5071249;28;20032;-61
2022/09/20 01:15:22;;;;;;;10.48;5.72;;;;;;;11.05;100.00;102166.09;5071159;28;20049;-62
2022/09/20 01:17:51;;;;;;;10.48;5.13;;;;;;;11.12;100.00;102161.75;5070864;28;20028;-63
2022/09/20 01:20:27;;;;;;;9.55;5.07;;;;;;;11.05;100.00;102150.38;5071185;28;20101;-64
2022/09/20 01:23:10;;;;;;;10.45;5.20;;;;;;;11.12;100.00;102152.16;5071160;28;20386;-63
2022/09/20 01:25:53;;;;;;;10.57;5.45;;;;;;;11.19;100.00;102163.53;5071072;28;20063;-61
2022/09/20 01:28:19;;;;;;;12.48;5.45;;;;;;;11.18;100.00;102156.56;5071071;28;20044;-62
2022/09/20 01:30:52;;;;;;;10.77;4.90;;;;;;;11.21;100.00;102155.69;5070957;28;20442;-63
2022/09/20 01:33:20;;;;;;;9.93;5.32;;;;;;;11.25;100.00;102147.00;5071145;28;20098;-62
2022/09/20 01:35:50;;;;;;;12.50;5.88;;;;;;;11.26;100.00;102156.56;5071010;28;20036;-62
2022/09/20 01:38:31;;;;;;;13.25;5.70;;;;;;;11.29;100.00;102151.34;5071892;28;20032;-61
2022/09/20 01:41:02;;;;;;;9.80;4.88;;;;;;;11.29;100.00;102153.97;5074596;28;20032;-63
2022/09/20 01:43:50;;;;;;;13.80;5.40;;;;;;;11.30;100.00;102148.75;5074774;28;20091;-60
2022/09/20 01:46:33;;;;;;;10.02;4.80;;;;;;;11.38;100.00;102161.91;5074362;28;20059;-61
2022/09/20 01:49:19;;;;;;;11.02;5.03;;;;;;;11.38;100.00;102157.53;5074490;28;20146;-62
2022/09/20 01:52:09;;;;;;;11.70;5.00;;;;;;;11.40;100.00;102155.78;5074499;28;20062;-64
2022/09/20 01:54:56;;;;;;;11.20;4.97;;;;;;;11.38;100.00;102154.91;5074476;28;20039;-61
2022/09/20 01:57:43;;;;;;;9.93;4.97;;;;;;;11.41;100.00;102160.16;5074507;28;20416;-62
2022/09/20 02:00:18;;;;;;;11.88;4.70;;;;;;;11.37;100.00;102160.13;5073909;28;20032;-61
2022/09/20 02:02:49;;;;;;;10.77;4.95;;;;;;;11.36;100.00;102164.50;5074259;28;20028;-63
2022/09/20 02:05:41;;;;;;;13.52;5.30;;;;;;;11.37;100.00;102161.00;5074237;28;20106;-63
2022/09/20 02:08:08;;;;;;;13.30;4.60;;;;;;;11.36;100.00;102154.03;5074123;28;20037;-62
2022/09/20 02:10:48;;;;;;;10.73;4.38;;;;;;;11.41;100.00;102160.16;5074293;28;20051;-62
2022/09/20 02:13:28;;;;;;;12.43;4.75;;;;;;;11.38;100.00;102159.28;5074069;28;20113;-61
2022/09/20 02:15:56;;;;;;;12.85;4.75;;;;;;;11.34;100.00;102153.13;5074013;28;20041;-61
2022/09/20 02:18:53;;;;;;;10.48;4.50;;;;;;;11.30;100.00;102147.88;5073637;28;20047;-60
2022/09/20 02:21:33;;;;;;;11.52;4.35;;;;;;;11.39;100.00;102166.25;5074022;28;20044;-62
2022/09/20 02:24:14;;;;;;;10.13;4.60;;;;;;;11.39;100.00;102161.03;5073696;28;20064;-61
2022/09/20 02:27:05;;;;;;;12.90;4.63;;;;;;;11.38;100.00;102152.28;5073729;28;20036;-61
2022/09/20 02:29:43;;;;;;;9.65;4.30;;;;;;;11.42;100.00;102161.91;5073881;28;20032;-61
2022/09/20 02:32:23;;;;;;;9.05;4.15;;;;;;;11.42;100.00;102159.31;5073716;28;20040;-60
2022/09/20 02:35:23;;;;;;;10.27;4.47;;;;;;;11.44;100.00;102160.16;5073553;28;20036;-63
2022/09/20 02:38:12;;;;;;;10.98;4.50;;;;;;;11.41;100.00;102144.44;5073777;28;20047;-61
2022/09/20 02:40:56;;;;;;;10.95;4.10;;;;;;;11.46;100.00;102150.56;5073356;28;20355;-62
2022/09/20 02:43:50;;;;;;;11.38;4.30;;;;;;;11.31;100.00;102126.91;5073314;28;20515;-61
2022/09/20 02:46:29;;;;;;;10.40;4.30;;;;;;;11.44;100.00;102143.56;5072869;28;20075;-63
2022/09/20 02:49:10;;;;;;;8.55;4.47;;;;;;;11.48;100.00;102164.53;5072960;28;20036;-61
2022/09/20 02:51:46;;;;;;;10.82;4.68;;;;;;;11.41;100.00;102160.16;5073474;28;20032;-61
2022/09/20 02:54:41;;;;;;;9.65;4.85;;;;;;;11.40;100.00;102160.16;5073091;28;20433;-62
2022/09/20 02:57:32;;;;;;;10.40;4.43;;;;;;;11.40;100.00;102160.16;5073142;28;20067;-61
2022/09/20 03:00:10;;;;;;;8.80;4.35;;;;;;;11.39;100.00;102159.28;5072944;28;20347;-61
2022/09/20 03:02:50;;;;;;;10.00;4.47;;;;;;;11.39;100.00;102154.03;5073313;28;20040;-63
2022/09/20 03:05:26;;;;;;;11.15;4.60;;;;;;;11.39;100.00;102148.78;5073219;28;20036;-63
2022/09/20 03:08:10;;;;;;;9.98;4.22;;;;;;;11.41;100.00;102149.69;5073037;28;20046;-62
2022/09/20 03:11:00;;;;;;;12.45;4.78;;;;;;;11.36;100.00;102142.66;5073020;28;20111;-62
2022/09/20 03:13:37;;;;;;;8.68;4.45;;;;;;;11.37;100.00;102145.28;5072989;28;20033;-62
2022/09/20 03:16:30;;;;;;;13.45;5.03;;;;;;;11.39;100.00;102150.53;5072520;28;20040;-63
2022/09/20 03:19:05;;;;;;;;;;;;;;;11.43;100.00;102154.91;5073197;28;20443;-62
2022/09/20 03:21:51;;;;;;;8.52;4.30;;;;;;;11.43;100.00;102154.91;5072930;28;19916;-63
2022/09/20 03:24:50;;;;;;;11.20;4.82;;;;;;;11.30;100.00;102134.75;5072739;28;20032;-62
2022/09/20 03:27:40;;;;;;;9.05;5.10;;;;;;;11.40;100.00;102155.78;5072571;28;20137;-62
2022/09/20 03:30:27;;;;;;;11.13;5.15;;;;;;;11.38;100.00;102164.50;5072615;28;20032;-61
2022/09/20 03:33:11;;;;;;;10.43;4.88;;;;;;;11.38;100.00;102149.66;5072446;28;20025;-61
2022/09/20 03:36:07;;;;;;;10.32;4.90;;;;;;;11.37;100.00;102153.16;5072315;28;20062;-62
2022/09/20 03:38:54;;;;;;;13.20;4.95;;;;;;;11.40;100.00;102158.41;5072392;28;20032;-61
2022/09/20 03:41:25;;;;;;;10.40;5.13;;;;;;;11.42;100.00;102156.69;5072360;28;20115;-62
2022/09/20 03:43:56;;;;;;;10.15;5.00;;;;;;;11.44;100.00;102162.78;5072234;28;20032;-63
2022/09/20 03:46:26;;;;;;;9.43;5.70;;;;;;;11.43;100.00;102157.53;5072339;28;20056;-62
2022/09/20 03:49:26;;;;;;;11.02;4.93;;;;;;;11.44;100.00;102159.28;5072216;28;20459;-61
2022/09/20 03:52:04;;;;;;;10.20;5.30;;;;;;;11.46;100.00;102162.78;5071978;28;20463;-62
2022/09/20 03:54:37;;;;;;;9.93;5.50;;;;;;;11.40;100.00;102162.78;5072149;28;20036;-61
2022/09/20 03:57:50;;;;;;;15.38;5.90;;;;;;;11.43;100.00;102158.41;5072106;28;20028;-61
2022/09/20 04:00:32;;;;;;;12.35;5.90;;;;;;;11.41;100.00;102157.53;5071627;28;20351;-62
2022/09/20 04:03:17;;;;;;;13.90;6.30;;;;;;;11.45;100.00;102159.28;5071918;28;20111;-62
2022/09/20 04:06:08;;;;;;;13.50;6.40;;;;;;;11.44;100.00;102159.28;5071562;28;20021;-63
2022/09/20 04:09:00;;;;;;;12.25;6.13;;;;;;;11.41;100.00;102149.69;5071934;28;20337;-63
2022/09/20 04:11:50;;;;;;;14.30;5.80;;;;;;;11.47;100.00;102157.56;5071683;28;20032;-60
2022/09/20 04:14:28;;;;;;;9.73;5.50;;;;;;;11.46;100.00;102153.16;5071842;28;20402;-62
2022/09/20 04:17:03;;;;;;;11.13;5.70;;;;;;;11.46;100.00;102137.44;5071865;28;20044;-62
2022/09/20 04:19:39;;;;;;;9.52;5.72;;;;;;;11.47;100.00;102138.31;5071798;28;20070;-63
2022/09/20 04:22:07;;;;;;;8.38;5.38;;;;;;;11.48;100.00;102134.84;5071828;28;20051;-62
2022/09/20 04:24:57;;;;;;;10.40;5.18;;;;;;;11.33;100.00;102119.06;5071692;28;20046;-63
2022/09/20 04:27:27;;;;;;;11.75;5.72;;;;;;;11.47;100.00;102149.69;5071431;28;20447;-62
2022/09/20 04:30:08;;;;;;;9.23;5.50;;;;;;;11.46;100.00;102140.06;5071480;28;20451;-63
2022/09/20 04:32:43;;;;;;;10.15;5.50;;;;;;;11.45;100.00;102150.53;5071642;28;20071;-61
2022/09/20 04:38:20;;;;;;;9.48;5.55;;;;;;;11.51;100.00;102137.47;5071399;28;20059;-62
2022/09/20 04:40:52;;;;;;;8.10;5.07;;;;;;;11.48;100.00;102148.81;5071604;28;20032;-63
2022/09/20 04:43:35;;;;;;;9.13;4.85;;;;;;;11.49;100.00;102134.84;5071369;28;20032;-62
2022/09/20 04:46:19;;;;;;;11.18;5.28;;;;;;;11.46;100.00;102144.44;5071216;28;20053;-61
2022/09/20 04:48:55;;;;;;;9.25;5.50;;;;;;;11.44;100.00;102143.56;5071550;28;20049;-63
2022/09/20 04:51:59;;;;;;;12.55;5.65;;;;;;;11.44;100.00;102152.28;5071696;28;20075;-63
2022/09/20 04:54:27;;;;;;;11.30;5.18;;;;;;;11.27;100.00;102133.00;5071379;28;20032;-63
2022/09/20 04:57:02;;;;;;;11.55;5.75;;;;;;;11.35;100.00;102159.25;5071264;28;20032;-62
2022/09/20 05:00:03;;;;;;;9.95;5.53;;;;;;;11.35;100.00;102167.13;5071360;28;20028;-60
2022/09/20 05:02:47;;;;;;;10.80;5.75;;;;;;;11.33;100.00;102160.97;5067844;28;20098;-64
2022/09/20 05:05:34;;;;;;;9.73;5.88;;;;;;;11.30;100.00;102171.44;5071442;28;20387;-69
2022/09/20 05:08:19;;;;;;;11.73;6.05;;;;;;;11.27;100.00;102161.81;5071352;28;20354;-63
2022/09/20 05:11:40;;;;;;;8.18;5.60;;;;;;;11.27;100.00;102161.81;5065684;28;20021;-66
2022/09/20 05:14:24;;;;;;;11.00;5.78;;;;;;;11.29;100.00;102165.34;4993152;28;20474;-66
2022/09/20 05:17:11;;;;;;;7.55;5.38;;;;;;;11.30;100.00;102168.81;5060616;28;20048;-64
2022/09/20 05:20:14;;;;;;;8.18;5.18;;;;;;;11.31;100.00;102174.09;5069838;28;20078;-65
2022/09/20 05:23:01;;;;;;;8.88;5.60;;;;;;;11.29;100.00;102170.56;5075254;28;20410;-66
2022/09/20 05:25:38;;;;;;;9.63;5.43;;;;;;;11.25;100.00;102178.44;5075135;28;20182;-63
2022/09/20 05:28:33;;;;;;;9.15;5.18;;;;;;;11.23;100.00;102180.16;5074900;28;20051;-65
2022/09/20 05:31:19;;;;;;;10.25;4.97;;;;;;;11.16;100.00;102171.38;5048210;28;20059;-65
2022/09/20 05:34:07;;;;;;;11.88;5.88;;;;;;;11.12;100.00;102187.94;5074770;28;20036;-65
2022/09/20 05:37:17;;;;;;;8.18;5.60;;;;;;;11.12;100.00;102187.94;5074868;28;20052;-65
2022/09/20 05:39:56;;;;;;;7.68;5.40;;;;;;;11.16;100.00;102192.34;5058643;28;20055;-64
2022/09/20 05:42:39;;;;;;;9.82;5.50;;;;;;;11.18;100.00;102194.97;5074556;28;20489;-59
2022/09/20 05:45:25;;;;;;;9.68;6.03;;;;;;;11.23;100.00;102203.75;5074291;28;20113;-60
2022/09/20 05:48:09;;;;;;;13.05;6.15;;;;;;;11.12;100.00;102175.72;5074385;28;20098;-60
2022/09/20 05:51:05;;;;;;;9.30;5.90;;;;;;;11.34;100.00;102199.44;5074070;28;20115;-61
2022/09/20 05:53:53;;;;;;;8.35;5.38;;;;;;;11.32;100.00;102195.91;5074353;28;20066;-64
2022/09/20 05:56:35;;;;;;;10.75;5.43;;;;;;;11.36;100.00;102203.81;5074055;28;20448;-63
2022/09/20 05:59:22;;;;;;;13.23;5.80;;;;;;;11.37;100.00;102202.06;5074220;28;20037;-63
2022/09/20 06:02:03;;;;;;;10.70;6.40;;;;;;;11.38;100.00;102206.44;5074319;28;20051;-61
2022/09/20 06:05:10;;;;;;;10.05;5.43;;;;;;;11.43;100.00;102213.44;5074490;28;20040;-65
2022/09/20 06:08:02;;;;;;;7.28;5.07;;;;;;;11.50;100.00;102217.88;5072984;28;20055;-63
2022/09/20 06:10:46;;;;;;;;;;;;;;;11.55;100.00;102217.00;5058759;28;20171;-54
2022/09/20 06:13:26;;;;;;;8.35;5.20;;;;;;;11.42;100.00;102206.47;5054007;28;20347;-58
2022/09/20 06:16:06;;;;;;;10.88;5.68;;;;;;;11.51;100.00;102222.25;5057836;28;20044;-62
2022/09/20 06:18:46;;;;;;;11.18;5.43;;;;;;;11.54;100.00;102225.75;5054031;28;20045;-65
2022/09/20 06:21:24;;;;;;;12.43;5.60;;;;;;;11.56;100.00;102224.00;5053664;28;20040;-64
2022/09/20 06:23:51;;;;;;;10.05;6.00;;;;;;;11.57;100.00;102226.66;5053056;28;20033;-62
2022/09/20 06:26:22;;;;;;;9.95;5.35;;;;;;;11.56;100.00;102222.28;5053528;28;20029;-63
2022/09/20 06:28:57;;;;;;;7.78;5.10;;;;;;;11.58;100.00;102230.13;5053741;28;20440;-63
2022/09/20 06:31:22;;;;;;;11.05;5.60;;;;;;;11.41;100.00;102199.47;5053827;28;20040;-62
2022/09/20 06:33:54;;;;;;;10.15;5.82;;;;;;;11.60;100.00;102228.41;5053782;28;20035;-62
2022/09/20 06:42:18;;;;;;;9.02;5.80;;;;;;;11.69;100.00;102228.44;5053750;28;20051;-61
2022/09/20 06:44:44;;;;;;;8.80;5.60;;;;;;;11.65;100.00;102213.53;5053230;28;20028;-62
2022/09/20 06:47:10;;;;;;;12.20;5.70;;;;;;;11.82;100.00;102230.25;5053588;28;20086;-62
2022/09/20 06:49:38;;;;;;;8.10;5.60;;;;;;;11.83;100.00;102227.66;5053297;28;20070;-63
2022/09/20 06:52:05;;;;;;;8.32;5.65;;;;;;;11.88;100.00;102232.91;5053463;28;20471;-63
2022/09/20 06:54:31;;;;;;;9.35;5.75;;;;;;;11.89;100.00;102225.91;5053554;28;20436;-62
2022/09/20 06:56:57;;;;;;;8.38;5.32;;;;;;;11.88;100.00;102225.03;5053276;28;20032;-63
2022/09/20 06:59:22;;;;;;;10.40;5.45;;;;;;;11.98;100.00;102226.81;5052893;28;20044;-64
2022/09/20 07:01:47;;;;;;;10.73;5.57;;;;;;;12.02;100.00;102225.97;5053106;28;20120;-62
2022/09/20 07:04:12;;;;;;;10.68;5.55;;;;;;;12.04;100.00;102229.47;5053094;28;20037;-63
2022/09/20 07:06:39;;;;;;;9.65;6.40;;;;;;;12.00;100.00;102219.81;5052716;28;20033;-62
2022/09/20 07:09:05;;;;;;;9.23;5.63;;;;;;;12.08;100.00;102231.22;5053178;28;20052;-64
2022/09/20 07:11:32;;;;;;;12.68;5.80;;;;;;;12.18;100.00;102233.00;5052971;28;20036;-63
2022/09/20 07:13:58;;;;;;;11.98;6.20;;;;;;;12.23;100.00;102229.50;5052973;28;20033;-56
2022/09/20 07:16:25;;;;;;;8.68;5.95;;;;;;;12.34;100.00;102230.38;5052973;28;20071;-54
2022/09/20 07:18:53;;;;;;;9.57;5.65;;;;;;;12.40;100.00;102235.66;5052773;28;20040;-57
2022/09/20 07:21:20;;;;;;;10.82;5.97;;;;;;;12.50;100.00;102237.41;5052891;28;20048;-62
2022/09/20 07:23:47;;;;;;;10.85;5.80;;;;;;;12.55;100.00;102230.44;5052871;28;20045;-61
2022/09/20 07:26:16;;;;;;;12.57;6.78;;;;;;;12.57;100.00;102233.94;5052456;28;20040;-61
2022/09/20 07:28:41;;;;;;;6.85;5.75;;;;;;;12.53;100.00;102229.53;5052439;28;20044;-61
2022/09/20 07:31:07;;;;;;;7.55;5.50;;;;;;;12.60;100.00;102219.94;5052164;28;20037;-62
2022/09/20 07:33:32;;;;;;;7.68;5.40;;;;;;;12.70;100.00;102222.53;5052202;28;20438;-62
2022/09/20 07:35:57;;;;;;;9.52;5.88;;;;;;;12.83;100.00;102232.16;5051625;28;20033;-61
2022/09/20 07:38:23;;;;;;;11.85;5.65;;;;;;;12.89;100.00;102220.78;5052005;28;20029;-61
2022/09/20 07:41:01;;;;;;;9.55;4.88;;;;;;;12.93;100.00;102234.81;5052308;28;20036;-62
2022/09/20 07:43:26;;;;;;;10.32;4.88;;;;;;;13.07;100.00;102238.28;5052455;28;20102;-62
2022/09/20 07:45:54;;;;;;;7.22;4.40;;;;;;;13.14;100.00;102240.03;5052003;28;20454;-62
2022/09/20 07:48:21;;;;;;;7.88;4.53;;;;;;;13.22;100.00;102235.66;5052338;28;20100;-62
2022/09/20 07:50:56;;;;;;;8.63;4.57;;;;;;;13.31;100.00;102240.03;5052226;28;20585;-62
2022/09/20 07:53:22;;;;;;;7.93;4.40;;;;;;;13.44;100.00;102239.13;5052034;28;20452;-62
2022/09/20 07:56:05;;;;;;;7.65;4.30;;;;;;;13.49;100.00;102243.50;5052074;28;20098;-61
2022/09/20 07:58:34;;;;;;;9.30;4.30;;;;;;;13.51;99.05;102252.22;5051890;28;20043;-61
2022/09/20 08:01:04;;;;;;;7.70;4.22;;;;;;;13.47;99.04;102258.41;5051998;28;20416;-60
2022/09/20 08:03:31;;;;;;;11.50;4.70;;;;;;;13.42;98.32;102257.53;5052213;28;20041;-62
2022/09/20 08:06:02;;;;;;;5.57;4.03;;;;;;;13.26;98.84;102258.44;5051967;28;20452;-63
2022/09/20 08:08:30;;;;;;;10.43;4.40;;;;;;;13.16;98.91;102267.22;5051809;28;20048;-61
2022/09/20 08:11:14;;;;;;;6.80;4.05;;;;;;;13.11;100.00;102264.56;5051756;28;20105;-61
2022/09/20 08:13:43;;;;;;;11.55;4.55;;;;;;;13.21;100.00;102262.81;5052426;28;20048;-60
2022/09/20 08:16:10;;;;;;;11.77;4.55;;;;;;;13.82;98.97;102268.81;5051843;28;20472;-60
2022/09/20 08:18:36;;;;;;;8.70;4.65;;;;;;;14.01;96.88;102259.06;5051747;28;20070;-61
2022/09/20 08:21:07;;;;;;;6.30;4.05;;;;;;;14.09;96.14;102262.53;5051824;28;20040;-60
2022/09/20 08:23:37;;;;;;;9.65;4.40;;;;;;;14.20;95.24;102262.44;5051729;28;20032;-61
2022/09/20 08:26:04;;;;;;;11.18;4.05;;;;;;;14.32;94.51;102262.41;5051809;28;20038;-62
2022/09/20 08:28:30;;;;;;;9.68;3.90;;;;;;;14.47;94.07;102274.63;5051546;28;20029;-61
2022/09/20 08:31:09;;;;;;;9.30;4.25;;;;;;;14.36;92.35;102268.53;5051504;28;20382;-61
2022/09/20 08:33:36;;;;;;;7.43;3.90;;;;;;;14.57;91.69;102265.75;5051193;28;20444;-60
2022/09/20 08:36:12;;;;;;;7.05;3.20;;;;;;;15.23;86.62;102251.16;5051535;28;20025;-60
2022/09/20 08:38:38;;;;;;;7.40;3.10;;;;;;;15.65;82.64;102259.50;5051450;28;20079;-61
2022/09/20 08:41:20;;;;;;;6.60;3.40;;;;;;;15.82;82.68;102261.94;5051241;28;20098;-60
2022/09/20 08:43:53;;;;;;;7.72;3.05;;;;;;;15.61;82.70;102265.69;5051486;28;20082;-61
2022/09/20 08:46:24;;;;;;;9.93;2.80;;;;;;;15.48;81.31;102264.94;5051119;28;20057;-61
2022/09/20 08:48:51;;;;;;;9.68;2.47;;;;;;;15.26;80.77;102263.41;5051374;28;20348;-60
2022/09/20 08:51:17;;;;;;;5.10;2.08;;;;;;;15.13;80.75;102272.34;5050934;28;20037;-60
2022/09/20 08:53:49;;;;;;;7.53;2.75;;;;;;;15.22;83.09;102277.53;5051421;28;20464;-60
2022/09/20 08:56:15;;;;;;;8.02;2.05;;;;;;;15.18;81.38;102274.06;5051293;28;20033;-63
2022/09/20 08:58:41;;;;;;;9.13;2.13;;;;;;;15.22;80.28;102282.81;5051252;28;20093;-62
2022/09/20 09:01:10;;;;;;;8.98;1.73;;;;;;;15.21;79.54;102281.94;5051196;28;20029;-61
2022/09/20 09:03:35;;;;;;;7.85;1.92;;;;;;;15.24;78.41;102281.88;5051377;28;20461;-60
2022/09/20 09:06:01;;;;;;;7.22;2.03;;;;;;;15.28;79.00;102274.81;5051198;28;20040;-60
2022/09/20 09:08:32;;;;;;;9.02;1.88;;;;;;;15.32;76.87;102279.19;5051207;28;20043;-61
2022/09/20 09:11:03;;;;;;;4.40;1.27;;;;;;;15.44;74.32;102279.03;5050901;28;20132;-61
2022/09/20 09:13:44;;;;;;;5.28;1.33;;;;;;;15.60;75.65;102274.50;5051259;28;20033;-60
2022/09/20 09:16:16;;;;;;;5.10;1.37;;;;;;;15.76;74.18;102273.44;5051167;28;20072;-61
2022/09/20 09:18:44;;;;;;;5.35;1.40;;;;;;;16.13;74.21;102278.25;5051146;28;20428;-62
2022/09/20 09:21:18;;;;;;;4.32;1.33;;;;;;;16.48;72.82;102270.69;5051262;28;20126;-61
2022/09/20 09:23:52;;;;;;;5.95;1.40;;;;;;;16.77;67.58;102274.72;5051168;28;20044;-62
2022/09/20 09:26:23;;;;;;;4.70;1.10;;;;;;;17.13;66.37;102270.56;5051147;28;20553;-63
2022/09/20 09:29:12;;;;;;;6.53;1.13;;;;;;;17.13;70.31;102252.06;5051120;28;20108;-61
2022/09/20 09:31:38;;;;;;;5.38;1.42;;;;;;;17.19;65.35;102268.66;5050779;28;20033;-61
2022/09/20 09:34:04;;;;;;;4.10;1.25;;;;;;;17.18;64.76;102264.28;5051153;28;20040;-61
2022/09/20 09:36:30;;;;;;;4.07;1.20;;;;;;;17.13;63.82;102265.28;5050812;28;20041;-61
2022/09/20 09:39:16;;;;;;;4.80;1.15;;;;;;;17.14;67.17;102262.63;5050777;28;20041;-61
2022/09/20 09:41:42;;;;;;;4.43;1.52;;;;;;;17.08;65.38;102268.00;5050957;28;20033;-61
2022/09/20 09:44:20;;;;;;;5.25;1.40;;;;;;;16.91;67.54;102255.06;5050726;28;20729;-60
2022/09/20 09:46:48;;;;;;;8.57;1.27;;;;;;;16.87;66.15;102263.94;5050847;28;20096;-61
2022/09/20 09:49:17;;;;;;;5.40;1.00;;;;;;;16.77;65.17;102275.59;5050913;28;20068;-62
2022/09/20 09:51:54;;;;;;;9.27;1.98;;;;;;;16.65;68.54;102283.69;5050934;28;20036;-61
2022/09/20 09:54:24;;;;;;;8.75;1.85;;;;;;;16.44;69.37;102274.31;5050764;28;20033;-61
2022/09/20 09:57:04;;;;;;;5.50;1.42;;;;;;;16.37;69.48;102280.56;5050528;28;20047;-60
2022/09/20 10:00:12;;;;;;;3.33;1.00;;;;;;;16.08;69.65;102282.75;5052224;28;20033;-61
2022/09/20 10:02:52;;;;;;;9.32;0.98;;;;;;;15.70;70.77;102277.94;5046184;28;20041;-61
2022/09/20 10:05:27;;;;;;;5.72;1.77;;;;;;;15.44;71.59;102286.97;5054305;28;20033;-61
2022/09/20 10:08:15;;;;;;;4.97;1.08;;;;;;;15.33;72.55;102296.75;5054310;28;20048;-61
2022/09/20 10:11:15;;;;;;;4.55;1.40;;;;;;;15.02;75.46;102298.81;5054040;28;20037;-60
2022/09/20 10:13:57;;;;;;;7.00;1.25;;;;;;;14.17;83.26;102296.72;5054131;28;20411;-61
2022/09/20 10:17:02;;;;;;;10.50;1.40;;;;;;;13.57;86.94;102296.94;5054280;28;20082;-61
2022/09/20 10:20:00;;;;;;;5.80;1.30;;;;;;;13.48;88.18;102299.59;5053808;28;20049;-59
2022/09/20 10:22:45;;;;;;;8.30;1.50;;;;;;;13.51;88.58;102301.31;5066755;28;20064;-62
2022/09/20 10:25:48;;;;;;;11.38;1.85;;;;;;;13.55;89.70;102298.69;5074033;28;20044;-60
2022/09/20 10:28:51;;;;;;;5.55;1.35;;;;;;;13.49;91.51;102304.00;5073889;28;20039;-60
2022/09/20 10:31:35;;;;;;;5.53;1.42;;;;;;;13.38;93.75;102295.22;5073986;28;20028;-61
2022/09/20 10:34:22;;;;;;;6.88;1.50;;;;;;;13.50;94.13;102294.34;5073736;28;20132;-60
2022/09/20 10:36:55;;;;;;;6.65;1.25;;;;;;;13.82;92.43;102289.84;5073636;28;20121;-61
2022/09/20 10:39:38;;;;;;;6.65;1.35;;;;;;;14.15;90.32;102291.47;5073705;28;20032;-62
2022/09/20 10:45:42;;;;;;;9.70;1.30;;;;;;;14.74;86.60;102294.63;5073650;28;20548;-61
2022/09/20 10:48:39;;;;;;;4.15;1.33;;;;;;;14.96;86.43;102293.56;5073183;28;20043;-62
2022/09/20 10:51:14;;;;;;;6.55;1.80;;;;;;;15.17;84.03;102292.53;5073507;28;20063;-61
2022/09/20 10:53:59;;;;;;;7.53;1.50;;;;;;;15.40;85.45;102294.94;5073260;28;20734;-62
2022/09/20 10:56:32;;;;;;;7.47;1.52;;;;;;;15.66;83.17;102293.78;5073550;28;20071;-62
2022/09/20 10:59:32;;;;;;;4.75;1.50;;;;;;;15.85;83.11;102289.19;5073196;28;20040;-62
2022/09/20 11:02:12;;;;;;;4.22;1.58;;;;;;;15.82;81.34;102290.97;5073427;28;20028;-61
2022/09/20 11:04:59;;;;;;;5.50;1.70;;;;;;;15.60;76.87;102271.88;5073351;28;20044;-62
2022/09/20 11:08:06;;;;;;;4.97;1.30;;;;;;;15.55;82.19;102289.50;5073143;28;20107;-62
2022/09/20 11:10:45;;;;;;;11.18;1.83;;;;;;;15.36;80.31;102295.84;5072393;28;20032;-63
2022/09/20 11:13:33;;;;;;;7.05;1.83;;;;;;;15.29;80.63;102292.41;5071837;28;20043;-61
2022/09/20 11:16:13;;;;;;;6.80;1.63;;;;;;;15.40;80.11;102298.47;5071402;28;20032;-63
2022/09/20 11:18:49;;;;;;;4.63;1.13;;;;;;;15.64;76.38;102299.97;5071683;28;20062;-62
2022/09/20 11:21:30;;;;;;;6.85;1.10;;;;;;;16.02;74.24;102295.13;5071316;28;20032;-62
2022/09/20 11:24:01;;;;;;;4.40;1.15;;;;;;;16.25;72.40;102292.19;5071314;28;20040;-62
2022/09/20 11:26:30;;;;;;;6.38;1.10;;;;;;;16.61;70.28;102296.06;5071155;28;20043;-62
2022/09/20 11:29:25;;;;;;;5.75;0.90;;;;;;;16.64;72.63;102297.78;5071309;28;20070;-62
2022/09/20 11:31:59;;;;;;;2.95;1.05;;;;;;;16.40;69.76;102298.16;5061147;28;20463;-62
2022/09/20 11:34:30;;;;;;;5.72;1.00;;;;;;;15.93;68.42;102297.03;5071170;28;20046;-61
2022/09/20 11:37:00;;;;;;;4.93;1.10;;;;;;;15.57;70.74;102307.09;5071302;28;20036;-62
2022/09/20 11:39:34;;;;;;;7.07;1.45;;;;;;;14.96;76.91;102317.31;5071235;28;20440;-63
2022/09/20 11:42:02;;;;;;;5.28;1.15;;;;;;;14.05;85.75;102318.69;5071314;28;20039;-63
2022/09/20 11:44:27;;;;;;;4.85;1.20;;;;;;;13.49;88.24;102314.50;5070933;28;20167;-61
2022/09/20 11:47:10;;;;;;;5.28;1.25;;;;;;;13.20;90.40;102330.28;5070939;28;20139;-61
2022/09/20 11:50:14;;;;;;;6.18;1.25;;;;;;;13.04;90.50;102327.63;5070952;28;20415;-62
2022/09/20 11:53:12;;;;;;;3.13;0.90;;;;;;;13.36;92.10;102317.13;5070774;28;20100;-63
2022/09/20 11:55:49;;;;;;;4.15;1.10;;;;;;;13.72;88.76;102317.06;5070805;28;20115;-61
2022/09/20 11:58:19;;;;;;;6.05;1.20;;;;;;;14.02;87.30;102318.72;5070907;28;20028;-62
2022/09/20 12:00:47;;;;;;;6.95;1.83;;;;;;;14.27;87.88;102304.56;5069648;28;20129;-61
2022/09/20 12:03:23;;;;;;;6.30;1.02;;;;;;;14.58;83.62;102318.44;5068442;28;20066;-62
2022/09/20 12:05:57;;;;;;;3.33;1.10;;;;;;;14.72;81.01;102326.25;5070080;28;20036;-62
2022/09/20 12:08:31;;;;;;;6.18;1.40;;;;;;;14.75;78.81;102336.78;5070741;28;20086;-62
2022/09/20 12:11:03;;;;;;;4.70;1.10;;;;;;;14.79;78.07;102333.25;5070629;28;20043;-62
2022/09/20 12:13:30;;;;;;;5.40;1.00;;;;;;;14.80;78.48;102324.44;5070188;28;20459;-61
2022/09/20 12:16:33;;;;;;;4.90;1.17;;;;;;;14.84;78.65;102327.94;5070459;28;20029;-62